Time;durP1;ratioP1;P1;durP2;ratioP2;P2;SDS_P1;SDS_P2;PMS_P1;PMS_P2;Temp;Humidity;BMP_temperature;BMP_pressure;BME280_temperature;BME280_humidity;BME280_pressure;Samples;Min_cycle;Max_cycle;Signal;HPM_P1;HPM_P2
2023/02/23 00:02:04;;;;;;;;;;;9.00;1.00;;;;;;5068756;28;19916;-78
2023/02/23 00:04:41;;;;;;;;;;;9.00;1.00;;;;;;5055883;28;19988;-78
2023/02/23 00:07:11;;;;;;;;;;;9.00;1.00;;;;;;5071525;28;19912;-78
2023/02/23 00:09:41;;;;;;;;;;;9.00;1.00;;;;;;5075312;28;19919;-75
2023/02/23 00:12:11;;;;;;;;;;;9.00;1.00;;;;;;5076108;28;20318;-74
2023/02/23 00:14:37;;;;;;;;;;;9.00;1.00;;;;;;5073676;28;19909;-74
2023/02/23 00:17:12;;;;;;;;;;;9.00;1.00;;;;;;5056025;28;20283;-74
2023/02/23 00:19:38;;;;;;;;;;;9.10;1.00;;;;;;5069041;28;19904;-75
2023/02/23 00:22:18;;;;;;;;;;;9.10;1.00;;;;;;5074628;28;20252;-76
2023/02/23 00:24:46;;;;;;;;;;;9.10;1.00;;;;;;5076850;28;19904;-74
2023/02/23 00:27:16;;;;;;;;;;;9.10;1.00;;;;;;5082287;28;19904;-74
2023/02/23 00:29:48;;;;;;;;;;;9.10;1.00;;;;;;5083124;28;19916;-75
2023/02/23 00:32:20;;;;;;;;;;;9.10;1.00;;;;;;5078826;28;19904;-75
2023/02/23 00:35:18;;;;;;;;;;;9.10;1.00;;;;;;5060429;28;19905;-75
2023/02/23 00:40:46;;;;;;;;;;;9.20;1.00;;;;;;5075415;28;20025;-78
2023/02/23 00:46:20;;;;;;;;;;;9.30;1.00;;;;;;5064527;28;19933;-78
2023/02/23 00:51:48;;;;;;;;;;;9.30;1.00;;;;;;5074812;28;20381;-78
2023/02/23 00:54:14;;;;;;;;;;;9.30;1.00;;;;;;5066148;28;19948;-75
2023/02/23 00:56:41;;;;;;;;;;;9.30;1.00;;;;;;5066984;28;19983;-75
2023/02/23 00:59:29;;;;;;;;;;;9.30;1.00;;;;;;5063784;28;19908;-75
2023/02/23 01:02:05;;;;;;;;;;;9.40;1.00;;;;;;5074919;28;19904;-75
2023/02/23 01:04:31;;;;;;;;;;;9.40;1.00;;;;;;5074525;28;20003;-75
2023/02/23 01:07:05;;;;;;;;;;;9.40;1.00;;;;;;5074799;28;19991;-75
2023/02/23 01:09:31;;;;;;;;;;;9.40;1.00;;;;;;5064712;28;19908;-74
2023/02/23 01:12:06;;;;;;;;;;;9.40;1.00;;;;;;5085604;28;19911;-74
2023/02/23 01:14:41;;;;;;;;;;;9.40;1.00;;;;;;5066694;28;19905;-75
2023/02/23 01:17:12;;;;;;;;;;;9.50;1.00;;;;;;5090440;28;20270;-75
2023/02/23 01:19:41;;;;;;;;;;;9.50;1.00;;;;;;5085219;28;19969;-75
2023/02/23 01:22:07;;;;;;;;;;;9.50;1.00;;;;;;5074867;28;19908;-75
2023/02/23 01:27:35;;;;;;;;;;;9.50;1.00;;;;;;5073373;28;19951;-78
2023/02/23 01:33:17;;;;;;;;;;;9.60;1.00;;;;;;5074097;28;19915;-79
2023/02/23 01:35:58;;;;;;;;;;;9.60;1.00;;;;;;5064612;28;19936;-78
2023/02/23 01:38:24;;;;;;;;;;;9.60;1.00;;;;;;5066201;28;20299;-74
2023/02/23 01:40:49;;;;;;;;;;;9.60;1.00;;;;;;5088489;28;19904;-75
2023/02/23 01:43:41;;;;;;;;;;;9.60;1.00;;;;;;5081404;28;19916;-76
2023/02/23 01:46:11;;;;;;;;;;;9.60;1.00;;;;;;5071151;28;19912;-74
2023/02/23 01:48:38;;;;;;;;;;;9.60;1.00;;;;;;5060639;28;19967;-75
2023/02/23 01:51:11;;;;;;;;;;;9.60;1.00;;;;;;5074262;28;19905;-75
2023/02/23 01:53:40;;;;;;;;;;;9.60;1.00;;;;;;5074487;28;20378;-75
2023/02/23 01:56:20;;;;;;;;;;;9.60;1.00;;;;;;5077738;28;20347;-75
2023/02/23 01:58:55;;;;;;;;;;;9.60;1.00;;;;;;5094393;28;19951;-75
2023/02/23 02:01:24;;;;;;;;;;;9.60;1.00;;;;;;5079793;28;19904;-76
2023/02/23 02:04:15;;;;;;;;;;;9.60;1.00;;;;;;5074098;28;19905;-75
2023/02/23 02:06:43;;;;;;;;;;;9.60;1.00;;;;;;5069839;28;20275;-75
2023/02/23 02:09:16;;;;;;;;;;;9.60;1.00;;;;;;5074548;28;19904;-78
2023/02/23 02:21:22;;;;;;;;;;;9.60;1.00;;;;;;5085261;28;19911;-78
2023/02/23 02:27:06;;;;;;;;;;;9.60;1.00;;;;;;5063514;28;19959;-78
2023/02/23 02:32:54;;;;;;;;;;;9.60;1.00;;;;;;5077277;28;19931;-78
2023/02/23 02:38:41;;;;;;;;;;;9.60;1.00;;;;;;5066491;28;19958;-78
2023/02/23 02:41:44;;;;;;;;;;;9.60;1.00;;;;;;5077481;28;19909;-78
2023/02/23 02:44:36;;;;;;;;;;;9.60;1.00;;;;;;5016731;28;19905;-79
2023/02/23 02:50:09;;;;;;;;;;;9.60;1.00;;;;;;5015725;28;20439;-78
2023/02/23 02:55:42;;;;;;;;;;;9.60;1.00;;;;;;5015484;28;19920;-79
2023/02/23 02:58:37;;;;;;;;;;;9.60;1.00;;;;;;5014594;28;19917;-79
2023/02/23 04:17:36;;;;;;;;;;;9.80;2.60;;;;;;5075442;28;20348;-75
2023/02/23 04:20:02;;;;;;;;;;;9.80;4.30;;;;;;5061918;28;19904;-75
2023/02/23 04:22:42;;;;;;;;;;;9.80;5.10;;;;;;5062475;28;19909;-75
2023/02/23 04:25:13;;;;;;;;;;;9.80;6.90;;;;;;5064754;28;20335;-76
2023/02/23 04:27:38;;;;;;;;;;;9.80;7.50;;;;;;5075028;28;19919;-74
2023/02/23 04:30:36;;;;;;;;;;;9.90;7.80;;;;;;5075513;28;20284;-75
2023/02/23 04:36:29;;;;;;;;;;;9.90;9.80;;;;;;5073914;28;19915;-75
2023/02/23 04:39:06;;;;;;;;;;;9.90;10.40;;;;;;5070415;28;19966;-75
2023/02/23 04:44:34;;;;;;;;;;;10.00;7.70;;;;;;5070650;28;19951;-78
2023/02/23 04:47:36;;;;;;;;;;;10.00;7.20;;;;;;5079451;28;19948;-79
2023/02/23 04:53:04;;;;;;;;;;;10.00;8.10;;;;;;5075173;28;19959;-79
2023/02/23 04:55:48;;;;;;;;;;;10.00;8.30;;;;;;5074980;28;19904;-79
2023/02/23 05:01:16;;;;;;;;;;;10.10;8.50;;;;;;5073008;28;19915;-87
2023/02/23 05:03:48;;;;;;;;;;;10.10;8.90;;;;;;5057454;28;20325;-86
2023/02/23 05:09:17;;;;;;;;;;;10.10;10.20;;;;;;5073041;28;19926;-87
2023/02/23 05:14:45;;;;;;;;;;;10.10;11.60;;;;;;5067825;28;20298;-81
2023/02/23 05:17:11;;;;;;;;;;;10.20;12.10;;;;;;5052081;28;19912;-81
2023/02/23 05:22:48;;;;;;;;;;;10.20;13.00;;;;;;5070876;28;19916;-81
2023/02/23 05:28:16;;;;;;;;;;;10.20;11.80;;;;;;5070180;28;19918;-88
2023/02/23 05:30:54;;;;;;;;;;;10.20;12.30;;;;;;5043108;28;20003;-88
2023/02/23 05:33:20;;;;;;;;;;;10.20;14.50;;;;;;5056979;28;19908;-88
2023/02/23 05:44:55;;;;;;;;;;;10.30;16.50;;;;;;5073902;28;20280;-82
2023/02/23 05:53:32;;;;;;;;;;;10.40;19.60;;;;;;5074027;28;20015;-81
2023/02/23 06:08:24;;;;;;;;;;;10.50;19.30;;;;;;5072238;28;19970;-81
2023/02/23 06:14:24;;;;;;;;;;;10.50;18.00;;;;;;5072984;28;19928;-82
2023/02/23 06:17:17;;;;;;;;;;;10.50;18.50;;;;;;5073493;28;19910;-81
2023/02/23 06:34:59;;;;;;;;;;;10.50;24.70;;;;;;5077277;28;19961;-88
2023/02/23 06:43:36;;;;;;;;;;;10.50;24.80;;;;;;5059225;28;20307;-81
2023/02/23 06:52:12;;;;;;;;;;;10.60;23.00;;;;;;5073244;28;19920;-85
2023/02/23 06:57:41;;;;;;;;;;;10.60;27.20;;;;;;5084591;28;20366;-83
2023/02/23 07:03:10;;;;;;;;;;;10.60;28.20;;;;;;5070042;28;19916;-81
2023/02/23 07:06:00;;;;;;;;;;;10.70;28.70;;;;;;5063074;28;19908;-81
2023/02/23 07:15:06;;;;;;;;;;;10.70;30.40;;;;;;5072377;28;19962;-80
2023/02/23 07:18:06;;;;;;;;;;;10.70;33.60;;;;;;5051397;28;19912;-80
2023/02/23 07:20:36;;;;;;;;;;;10.80;32.60;;;;;;5063031;28;19919;-80
2023/02/23 07:26:04;;;;;;;;;;;10.80;33.50;;;;;;5090197;28;20307;-81
2023/02/23 07:28:37;;;;;;;;;;;10.80;35.20;;;;;;5077458;28;19912;-89
2023/02/23 07:31:36;;;;;;;;;;;10.80;42.70;;;;;;5058797;28;19908;-88
2023/02/23 07:34:02;;;;;;;;;;;10.90;42.80;;;;;;5076592;28;21457;-73
2023/02/23 07:36:27;;;;;;;;;;;10.90;42.60;;;;;;5074101;28;19970;-71
2023/02/23 07:38:53;;;;;;;;;;;10.90;42.80;;;;;;5073617;28;20343;-72
2023/02/23 07:41:18;;;;;;;;;;;11.00;42.70;;;;;;5074105;28;19987;-72
2023/02/23 07:43:44;;;;;;;;;;;11.20;43.00;;;;;;5069809;28;20429;-70
2023/02/23 07:46:42;;;;;;;;;;;11.30;43.20;;;;;;5076193;28;19908;-78
2023/02/23 07:55:13;;;;;;;;;;;11.40;33.80;;;;;;5076322;28;19974;-77
2023/02/23 07:57:42;;;;;;;;;;;11.50;28.70;;;;;;5070788;28;20824;-76
2023/02/23 08:00:24;;;;;;;;;;;11.60;25.30;;;;;;5075590;28;19908;-76
2023/02/23 08:02:51;;;;;;;;;;;11.70;21.40;;;;;;5071471;28;19908;-75
2023/02/23 08:08:24;;;;;;;;;;;11.70;16.40;;;;;;5065174;28;20398;-75
2023/02/23 08:11:01;;;;;;;;;;;11.80;14.10;;;;;;5065779;28;19912;-76
2023/02/23 08:17:00;;;;;;;;;;;11.80;10.60;;;;;;5075520;28;19911;-76
2023/02/23 08:22:28;;;;;;;;;;;11.70;8.10;;;;;;5064943;28;19963;-75
2023/02/23 08:25:06;;;;;;;;;;;11.80;8.60;;;;;;5077866;28;19908;-76
2023/02/23 08:30:36;;;;;;;;;;;11.80;6.50;;;;;;5073907;28;19969;-77
2023/02/23 08:33:18;;;;;;;;;;;11.70;9.70;;;;;;5074934;28;20355;-78
2023/02/23 08:36:01;;;;;;;;;;;11.70;11.40;;;;;;5074126;28;19916;-77
2023/02/23 08:38:36;;;;;;;;;;;11.50;12.80;;;;;;5075627;28;19966;-77
2023/02/23 08:44:04;;;;;;;;;;;11.60;13.30;;;;;;5062024;28;20426;-70
2023/02/23 08:46:30;;;;;;;;;;;11.40;14.00;;;;;;5079757;28;19904;-70
2023/02/23 08:48:56;;;;;;;;;;;11.50;21.40;;;;;;5074999;28;19919;-70
2023/02/23 08:51:21;;;;;;;;;;;11.50;23.80;;;;;;5075298;28;20371;-70
2023/02/23 08:53:48;;;;;;;;;;;11.70;22.80;;;;;;5073171;28;19916;-70
2023/02/23 08:56:14;;;;;;;;;;;11.90;18.40;;;;;;5074842;28;19970;-70
2023/02/23 08:58:40;;;;;;;;;;;12.00;13.20;;;;;;5067832;28;20026;-70
2023/02/23 09:01:05;;;;;;;;;;;11.90;10.90;;;;;;5081021;28;19946;-70
2023/02/23 09:03:31;;;;;;;;;;;12.00;11.70;;;;;;5086085;28;20355;-71
2023/02/23 09:05:58;;;;;;;;;;;12.10;9.50;;;;;;5071385;28;19913;-70
2023/02/23 09:08:24;;;;;;;;;;;12.20;1.00;;;;;;5075211;28;19905;-70
2023/02/23 09:10:49;;;;;;;;;;;12.30;1.00;;;;;;5073322;28;19912;-70
2023/02/23 09:13:16;;;;;;;;;;;12.40;1.00;;;;;;5074081;28;19914;-70
2023/02/23 09:15:42;;;;;;;;;;;12.20;1.00;;;;;;5074531;28;20007;-71
2023/02/23 09:18:09;;;;;;;;;;;12.20;1.00;;;;;;5067527;28;19912;-70
2023/02/23 09:20:35;;;;;;;;;;;12.30;1.00;;;;;;5069984;28;19987;-70
2023/02/23 09:23:01;;;;;;;;;;;12.50;1.00;;;;;;5069902;28;20055;-70
2023/02/23 09:25:28;;;;;;;;;;;12.60;1.00;;;;;;5073397;28;19959;-70
2023/02/23 09:27:55;;;;;;;;;;;12.70;1.00;;;;;;5066730;28;19908;-71
2023/02/23 09:30:21;;;;;;;;;;;12.50;1.00;;;;;;5070978;28;20007;-71
2023/02/23 09:32:48;;;;;;;;;;;12.50;1.00;;;;;;5073134;28;20000;-70
2023/02/23 09:38:16;;;;;;;;;;;12.50;1.00;;;;;;5074138;28;19919;-75
2023/02/23 09:41:06;;;;;;;;;;;12.50;1.00;;;;;;5074178;28;19904;-76
2023/02/23 09:52:44;;;;;;;;;;;12.50;1.00;;;;;;5054310;28;19916;-76
2023/02/23 09:55:30;;;;;;;;;;;12.60;1.00;;;;;;5062679;28;19905;-76
2023/02/23 10:01:01;;;;;;;;;;;12.70;1.00;;;;;;5072727;28;19927;-76
2023/02/23 10:06:29;;;;;;;;;;;13.10;1.00;;;;;;5061560;28;20322;-76
2023/02/23 10:12:07;;;;;;;;;;;13.40;1.00;;;;;;5073594;28;19920;-77
2023/02/23 10:17:54;;;;;;;;;;;13.70;1.00;;;;;;5075467;28;19915;-77
2023/02/23 10:20:30;;;;;;;;;;;14.00;1.00;;;;;;5078833;28;19935;-77
2023/02/23 10:22:57;;;;;;;;;;;14.10;1.00;;;;;;5073515;28;19905;-77
2023/02/23 10:25:48;;;;;;;;;;;14.10;1.00;;;;;;5069278;28;19912;-76
2023/02/23 10:28:36;;;;;;;;;;;14.00;1.00;;;;;;5056134;28;19905;-77
2023/02/23 10:34:11;;;;;;;;;;;14.30;1.00;;;;;;5072810;28;19911;-77
2023/02/23 10:37:00;;;;;;;;;;;13.90;1.00;;;;;;5073262;28;19912;-76
2023/02/23 10:39:26;;;;;;;;;;;13.70;1.00;;;;;;5065796;28;19908;-76
2023/02/23 10:41:55;;;;;;;;;;;13.80;1.00;;;;;;5073621;28;20275;-77
2023/02/23 10:47:25;;;;;;;;;;;13.90;1.00;;;;;;5084350;28;19949;-78
2023/02/23 10:52:57;;;;;;;;;;;14.00;1.00;;;;;;5078304;28;19958;-78
2023/02/23 10:58:48;;;;;;;;;;;13.40;1.00;;;;;;5063123;28;20008;-78
2023/02/23 11:04:24;;;;;;;;;;;13.10;1.00;;;;;;5077020;28;19915;-78
2023/02/23 11:10:12;;;;;;;;;;;13.20;1.00;;;;;;5067699;28;19911;-78
2023/02/23 11:13:06;;;;;;;;;;;13.30;1.00;;;;;;5075636;28;19908;-78
2023/02/23 11:16:00;;;;;;;;;;;13.30;1.00;;;;;;5077457;28;19904;-78
2023/02/23 11:19:00;;;;;;;;;;;13.60;1.00;;;;;;5075417;28;19912;-78
2023/02/23 11:21:54;;;;;;;;;;;14.00;1.00;;;;;;5076530;28;19904;-76
2023/02/23 11:27:36;;;;;;;;;;;14.50;1.00;;;;;;5082090;28;19951;-76
2023/02/23 11:39:18;;;;;;;;;;;15.20;1.00;;;;;;5067134;28;19962;-78
2023/02/23 11:45:05;;;;;;;;;;;15.50;1.00;;;;;;5069429;28;19915;-78
2023/02/23 11:50:35;;;;;;;;;;;15.30;1.00;;;;;;5056162;28;19932;-79
2023/02/23 11:53:36;;;;;;;;;;;15.30;1.00;;;;;;5073930;28;19956;-78
2023/02/23 11:56:24;;;;;;;;;;;15.10;1.00;;;;;;5062763;28;19947;-78
2023/02/23 12:01:53;;;;;;;;;;;14.90;1.00;;;;;;5055558;28;19998;-77
2023/02/23 12:04:54;;;;;;;;;;;15.10;1.00;;;;;;5081283;28;19916;-82
2023/02/23 12:10:36;;;;;;;;;;;15.20;1.00;;;;;;5075565;28;19911;-93
2023/02/23 12:16:07;;;;;;;;;;;15.40;1.00;;;;;;5064488;28;19911;-75
2023/02/23 12:19:05;;;;;;;;;;;15.20;1.00;;;;;;5089396;28;19912;-76
2023/02/23 12:21:46;;;;;;;;;;;15.00;1.00;;;;;;5013667;28;19917;-75
2023/02/23 12:24:39;;;;;;;;;;;14.90;1.00;;;;;;5013966;28;20380;-75
2023/02/23 12:27:24;;;;;;;;;;;14.70;1.00;;;;;;4976484;28;19963;-75
2023/02/23 12:33:06;;;;;;;;;;;15.00;1.00;;;;;;4978603;28;20433;-76
2023/02/23 12:35:42;;;;;;;;;;;15.20;1.00;;;;;;4981221;28;20349;-75
2023/02/23 12:44:44;;;;;;;;;;;15.10;1.00;;;;;;4980915;28;19966;-75
2023/02/23 12:50:27;;;;;;;;;;;14.90;1.00;;;;;;4879188;29;19953;-78
2023/02/23 12:56:14;;;;;;;;;;;14.90;1.00;;;;;;4877843;29;19919;-77
2023/02/23 12:58:54;;;;;;;;;;;15.10;1.00;;;;;;4916786;29;19915;-79
2023/02/23 13:01:33;;;;;;;;;;;15.10;1.00;;;;;;4917102;29;20297;-74
2023/02/23 13:04:18;;;;;;;;;;;15.10;1.00;;;;;;4947594;28;20362;-74
2023/02/23 13:06:58;;;;;;;;;;;15.20;1.00;;;;;;4973344;28;20266;-75
2023/02/23 13:09:30;;;;;;;;;;;15.20;1.00;;;;;;4974118;28;19913;-74
2023/02/23 13:12:14;;;;;;;;;;;15.00;1.00;;;;;;4964315;28;19992;-74
2023/02/23 13:21:04;;;;;;;;;;;14.70;1.00;;;;;;4973291;28;20008;-76
2023/02/23 13:23:54;;;;;;;;;;;14.70;1.00;;;;;;5020066;28;19911;-77
2023/02/23 13:26:26;;;;;;;;;;;14.60;1.00;;;;;;5074533;28;19904;-78
2023/02/23 13:29:01;;;;;;;;;;;14.40;1.00;;;;;;5074354;28;19923;-77
2023/02/23 13:31:33;;;;;;;;;;;14.40;1.00;;;;;;5071009;28;19916;-75
2023/02/23 13:40:04;;;;;;;;;;;14.60;1.00;;;;;;5074325;28;19919;-75
2023/02/23 13:42:57;;;;;;;;;;;14.70;1.00;;;;;;5074330;28;19904;-76
2023/02/23 13:45:48;;;;;;;;;;;14.80;1.00;;;;;;5062748;28;19911;-76
2023/02/23 13:48:44;;;;;;;;;;;14.90;1.00;;;;;;5074232;28;19911;-76
2023/02/23 13:51:36;;;;;;;;;;;15.00;1.00;;;;;;5066792;28;20035;-76
2023/02/23 13:54:36;;;;;;;;;;;15.10;1.00;;;;;;5074339;28;20271;-76
2023/02/23 13:57:21;;;;;;;;;;;15.10;1.00;;;;;;5071059;28;19908;-76
2023/02/23 14:00:18;;;;;;;;;;;15.20;1.00;;;;;;5057557;28;20011;-75
2023/02/23 14:02:54;;;;;;;;;;;15.20;1.00;;;;;;5072335;28;19904;-76
2023/02/23 14:05:32;;;;;;;;;;;15.30;1.00;;;;;;5073446;28;20348;-77
2023/02/23 14:08:18;;;;;;;;;;;15.30;1.00;;;;;;5067390;28;19915;-77
2023/02/23 14:10:49;;;;;;;;;;;15.40;1.00;;;;;;5071245;28;19911;-77
2023/02/23 14:13:24;;;;;;;;;;;15.30;1.00;;;;;;5062524;28;19905;-78
2023/02/23 14:16:18;;;;;;;;;;;15.40;1.00;;;;;;5070453;28;19908;-80
2023/02/23 14:18:55;;;;;;;;;;;15.50;1.00;;;;;;5069604;28;19912;-77
2023/02/23 14:21:33;;;;;;;;;;;15.50;1.00;;;;;;5073691;28;19909;-78
2023/02/23 14:30:11;;;;;;;;;;;15.40;1.00;;;;;;5062480;28;19989;-77
2023/02/23 14:32:46;;;;;;;;;;;15.40;1.00;;;;;;5074251;28;20013;-76
2023/02/23 14:35:38;;;;;;;;;;;15.30;1.00;;;;;;5072728;28;19908;-75
2023/02/23 14:38:30;;;;;;;;;;;15.20;1.00;;;;;;5065865;28;19920;-76
2023/02/23 14:40:59;;;;;;;;;;;15.20;1.00;;;;;;5077740;28;19947;-74
2023/02/23 14:46:48;;;;;;;;;;;14.90;1.00;;;;;;5061983;28;19951;-78
2023/02/23 14:49:48;;;;;;;;;;;15.00;1.00;;;;;;5064082;28;19998;-78
2023/02/23 14:52:24;;;;;;;;;;;14.70;1.00;;;;;;5077449;28;20348;-78
2023/02/23 14:54:50;;;;;;;;;;;14.60;1.00;;;;;;5073434;28;19904;-77
2023/02/23 15:00:42;;;;;;;;;;;14.50;1.00;;;;;;5076967;28;19959;-80
2023/02/23 15:03:18;;;;;;;;;;;14.30;1.00;;;;;;5077728;28;20324;-80
2023/02/23 15:05:44;;;;;;;;;;;14.20;1.00;;;;;;5072829;28;19912;-71
2023/02/23 15:08:20;;;;;;;;;;;14.30;1.00;;;;;;5078033;28;20326;-72
2023/02/23 15:10:47;;;;;;;;;;;14.30;1.00;;;;;;5072426;28;19966;-71
2023/02/23 15:13:19;;;;;;;;;;;14.30;1.00;;;;;;5059732;28;19904;-71
2023/02/23 15:15:45;;;;;;;;;;;14.20;1.00;;;;;;5069215;28;20259;-71
2023/02/23 15:21:21;;;;;;;;;;;14.00;1.00;;;;;;5078262;28;19931;-71
2023/02/23 15:23:47;;;;;;;;;;;13.80;1.00;;;;;;5081958;28;19991;-72
2023/02/23 15:26:32;;;;;;;;;;;13.90;1.00;;;;;;5077099;28;20271;-71
2023/02/23 15:29:04;;;;;;;;;;;13.70;1.00;;;;;;5069972;28;19909;-72
2023/02/23 15:31:30;;;;;;;;;;;13.60;1.00;;;;;;5070217;28;19912;-72
2023/02/23 15:33:56;;;;;;;;;;;13.70;1.00;;;;;;5068679;28;19904;-72
2023/02/23 15:36:28;;;;;;;;;;;13.70;1.00;;;;;;5074496;28;19930;-71
2023/02/23 15:38:55;;;;;;;;;;;13.60;1.00;;;;;;5063895;28;19920;-72
2023/02/23 15:41:24;;;;;;;;;;;13.60;1.00;;;;;;5090175;28;19908;-72
2023/02/23 15:44:00;;;;;;;;;;;13.30;1.00;;;;;;5068084;28;19905;-72
2023/02/23 15:46:31;;;;;;;;;;;13.40;1.00;;;;;;5069080;28;19912;-73
2023/02/23 15:49:13;;;;;;;;;;;13.30;1.00;;;;;;5074313;28;19940;-73
2023/02/23 15:51:50;;;;;;;;;;;13.20;1.00;;;;;;5063342;28;19923;-75
2023/02/23 15:54:32;;;;;;;;;;;13.20;1.00;;;;;;5080617;28;19905;-74
2023/02/23 16:00:08;;;;;;;;;;;13.10;1.00;;;;;;5071609;28;19919;-74
2023/02/23 16:02:36;;;;;;;;;;;13.10;1.00;;;;;;5076550;28;19905;-74
2023/02/23 16:05:24;;;;;;;;;;;13.10;1.00;;;;;;5075982;28;19942;-74
2023/02/23 16:08:06;;;;;;;;;;;13.00;1.00;;;;;;5067399;28;19909;-74
2023/02/23 16:10:50;;;;;;;;;;;13.00;1.00;;;;;;5070756;28;20355;-74
2023/02/23 16:13:18;;;;;;;;;;;12.90;1.00;;;;;;5067430;28;19908;-73
2023/02/23 16:15:48;;;;;;;;;;;12.80;1.00;;;;;;5070984;28;19995;-73
2023/02/23 16:18:36;;;;;;;;;;;12.80;1.00;;;;;;5068997;28;20339;-77
2023/02/23 16:21:15;;;;;;;;;;;12.80;1.00;;;;;;5082877;28;19950;-76
2023/02/23 16:23:44;;;;;;;;;;;12.70;1.00;;;;;;5075861;28;20287;-76
2023/02/23 16:26:23;;;;;;;;;;;12.70;1.00;;;;;;5063679;28;19908;-76
2023/02/23 16:29:01;;;;;;;;;;;12.60;1.00;;;;;;5075646;28;20271;-76
2023/02/23 16:31:54;;;;;;;;;;;12.50;1.00;;;;;;5075509;28;19912;-77
2023/02/23 16:34:54;;;;;;;;;;;12.40;1.00;;;;;;5075172;28;19916;-77
2023/02/23 16:37:30;;;;;;;;;;;12.40;1.00;;;;;;5065907;28;19915;-76
2023/02/23 16:40:00;;;;;;;;;;;12.30;1.00;;;;;;5086200;28;19914;-76
2023/02/23 16:45:37;;;;;;;;;;;12.20;1.00;;;;;;5065024;28;19916;-77
2023/02/23 16:48:03;;;;;;;;;;;12.20;1.00;;;;;;5075657;28;20325;-75
2023/02/23 16:50:32;;;;;;;;;;;12.10;1.00;;;;;;5084440;28;19919;-75
2023/02/23 16:53:02;;;;;;;;;;;12.10;1.00;;;;;;5077069;28;19908;-75
2023/02/23 16:55:28;;;;;;;;;;;12.10;1.00;;;;;;5075270;28;19908;-75
2023/02/23 16:57:55;;;;;;;;;;;12.00;1.00;;;;;;5074812;28;19908;-75
2023/02/23 17:00:23;;;;;;;;;;;12.00;1.00;;;;;;5066083;28;19905;-74
2023/02/23 17:03:00;;;;;;;;;;;12.00;1.00;;;;;;5042243;28;19909;-76
2023/02/23 17:08:30;;;;;;;;;;;12.00;1.00;;;;;;5072186;28;20050;-76
2023/02/23 17:11:31;;;;;;;;;;;11.80;1.00;;;;;;5074960;28;19911;-77
2023/02/23 17:16:59;;;;;;;;;;;11.80;1.00;;;;;;5068025;28;20255;-77
2023/02/23 17:22:32;;;;;;;;;;;11.90;1.00;;;;;;5074508;28;19985;-75
2023/02/23 17:24:57;;;;;;;;;;;11.90;1.00;;;;;;5057040;28;20283;-76
2023/02/23 17:27:24;;;;;;;;;;;11.90;1.00;;;;;;5079410;28;19904;-76
2023/02/23 17:29:49;;;;;;;;;;;11.90;1.00;;;;;;5073610;28;19908;-76
2023/02/23 17:32:24;;;;;;;;;;;11.80;1.00;;;;;;5074717;28;19904;-76
2023/02/23 17:34:54;;;;;;;;;;;11.80;1.00;;;;;;5072667;28;19908;-75
2023/02/23 17:40:30;;;;;;;;;;;11.80;1.00;;;;;;5054224;28;19912;-75
2023/02/23 17:43:02;;;;;;;;;;;11.70;1.00;;;;;;5061233;28;19904;-75
2023/02/23 17:45:28;;;;;;;;;;;11.80;1.00;;;;;;5074104;28;20316;-75
2023/02/23 17:48:00;;;;;;;;;;;11.80;1.00;;;;;;5074458;28;19968;-75
2023/02/23 17:50:48;;;;;;;;;;;11.80;1.00;;;;;;5077563;28;19908;-75
2023/02/23 17:53:14;;;;;;;;;;;11.80;1.00;;;;;;5074306;28;19919;-75
2023/02/23 17:56:00;;;;;;;;;;;11.80;1.00;;;;;;5069343;28;19904;-77
2023/02/23 18:01:50;;;;;;;;;;;11.80;1.00;;;;;;5079408;28;19915;-76
2023/02/23 18:04:16;;;;;;;;;;;11.80;1.00;;;;;;5068581;28;19908;-75
2023/02/23 18:06:42;;;;;;;;;;;11.80;1.00;;;;;;5067422;28;20404;-75
2023/02/23 18:12:07;;;;;;;;;;;11.80;1.00;;;;;;5082423;28;19939;-73
2023/02/23 18:14:36;;;;;;;;;;;11.80;1.00;;;;;;5082308;28;20351;-74
2023/02/23 18:17:24;;;;;;;;;;;11.80;1.00;;;;;;5074033;28;19904;-74
2023/02/23 18:19:50;;;;;;;;;;;11.70;1.00;;;;;;5074256;28;19908;-74
2023/02/23 18:22:16;;;;;;;;;;;11.70;1.00;;;;;;5073979;28;19908;-75
2023/02/23 18:24:41;;;;;;;;;;;11.70;1.00;;;;;;5074128;28;19992;-74
2023/02/23 18:27:07;;;;;;;;;;;11.70;1.00;;;;;;5073890;28;20414;-75
2023/02/23 18:29:33;;;;;;;;;;;11.70;1.00;;;;;;5073600;28;19904;-75
2023/02/23 18:32:00;;;;;;;;;;;11.60;1.00;;;;;;5074034;28;19915;-74
2023/02/23 18:34:49;;;;;;;;;;;11.60;1.00;;;;;;5074024;28;19911;-77
2023/02/23 18:37:27;;;;;;;;;;;11.60;1.00;;;;;;5086714;28;19986;-77
2023/02/23 18:43:24;;;;;;;;;;;11.50;1.00;;;;;;5059080;28;20074;-76
2023/02/23 18:46:03;;;;;;;;;;;11.50;1.00;;;;;;5073807;28;19958;-77
2023/02/23 18:48:29;;;;;;;;;;;11.40;1.00;;;;;;5061016;28;19919;-75
2023/02/23 18:51:00;;;;;;;;;;;11.40;1.00;;;;;;5074009;28;19908;-77
2023/02/23 18:59:36;;;;;;;;;;;11.30;1.00;;;;;;5062881;28;19918;-76
2023/02/23 19:02:30;;;;;;;;;;;11.30;1.00;;;;;;5055668;28;19904;-75
2023/02/23 19:05:24;;;;;;;;;;;11.20;1.00;;;;;;5073844;28;19911;-74
2023/02/23 19:08:18;;;;;;;;;;;11.20;1.00;;;;;;5072864;28;19905;-75
2023/02/23 19:10:44;;;;;;;;;;;11.10;1.00;;;;;;5081967;28;19912;-75
2023/02/23 19:13:30;;;;;;;;;;;11.10;1.00;;;;;;5064584;28;19909;-75
2023/02/23 19:16:13;;;;;;;;;;;11.10;1.00;;;;;;5060600;28;19904;-75
2023/02/23 19:21:48;;;;;;;;;;;11.10;1.00;;;;;;5076780;28;19911;-76
2023/02/23 19:24:30;;;;;;;;;;;11.00;1.00;;;;;;5068879;28;19954;-76
2023/02/23 19:26:56;;;;;;;;;;;11.00;1.00;;;;;;5072787;28;19991;-75
2023/02/23 19:29:21;;;;;;;;;;;11.00;1.00;;;;;;5073060;28;20343;-74
2023/02/23 19:31:48;;;;;;;;;;;10.80;1.00;;;;;;5074572;28;20265;-74
2023/02/23 19:34:14;;;;;;;;;;;10.80;1.00;;;;;;5066423;28;19904;-74
2023/02/23 19:36:46;;;;;;;;;;;10.80;1.00;;;;;;5076864;28;19955;-72
2023/02/23 19:39:14;;;;;;;;;;;10.80;1.00;;;;;;5082161;28;19908;-74
2023/02/23 19:41:43;;;;;;;;;;;10.80;1.00;;;;;;5076716;28;19967;-74
2023/02/23 19:44:12;;;;;;;;;;;10.80;1.00;;;;;;5076395;28;19909;-74
2023/02/23 19:46:48;;;;;;;;;;;10.80;1.00;;;;;;5061270;28;19927;-74
2023/02/23 19:52:18;;;;;;;;;;;10.80;1.00;;;;;;5069141;28;19919;-76
2023/02/23 19:54:44;;;;;;;;;;;10.80;1.00;;;;;;5076643;28;19963;-77
2023/02/23 19:57:19;;;;;;;;;;;10.80;1.00;;;;;;5087871;28;19993;-76
2023/02/23 20:05:51;;;;;;;;;;;10.70;1.00;;;;;;5073398;28;19911;-79
2023/02/23 20:08:36;;;;;;;;;;;10.60;1.00;;;;;;5075036;28;20002;-84
2023/02/23 20:11:36;;;;;;;;;;;10.70;1.00;;;;;;5077508;28;19908;-77
2023/02/23 20:17:04;;;;;;;;;;;10.70;1.00;;;;;;5076034;28;20010;-77
2023/02/23 20:23:06;;;;;;;;;;;10.70;1.00;;;;;;5075717;28;20328;-78
2023/02/23 20:26:06;;;;;;;;;;;10.70;1.00;;;;;;5075748;28;19905;-78
2023/02/23 20:29:09;;;;;;;;;;;10.60;1.00;;;;;;5075571;28;20028;-79
2023/02/23 20:34:38;;;;;;;;;;;10.50;1.00;;;;;;5075606;28;19963;-77
2023/02/23 20:37:18;;;;;;;;;;;10.50;1.00;;;;;;5075931;28;19967;-77
2023/02/23 20:40:21;;;;;;;;;;;10.50;1.00;;;;;;5075551;28;20380;-77
2023/02/23 20:43:06;;;;;;;;;;;10.60;1.00;;;;;;5057879;28;19912;-76
2023/02/23 20:45:56;;;;;;;;;;;10.60;1.00;;;;;;5060080;28;19916;-76
2023/02/23 20:48:48;;;;;;;;;;;10.70;1.00;;;;;;5073877;28;19908;-77
2023/02/23 20:51:17;;;;;;;;;;;10.70;1.00;;;;;;5066731;28;19908;-77
2023/02/23 20:53:45;;;;;;;;;;;10.70;1.00;;;;;;5062164;28;19912;-76
2023/02/23 20:56:20;;;;;;;;;;;10.70;1.00;;;;;;5074286;28;20335;-76
2023/02/23 20:58:46;;;;;;;;;;;10.70;1.00;;;;;;5070500;28;20267;-76
2023/02/23 21:01:48;;;;;;;;;;;10.60;1.00;;;;;;5074158;28;19999;-76
2023/02/23 21:16:31;;;;;;;;;;;10.50;1.00;;;;;;5074360;28;20002;-79
2023/02/23 21:19:06;;;;;;;;;;;10.50;1.00;;;;;;5069595;28;20003;-79
2023/02/23 21:22:00;;;;;;;;;;;10.50;1.00;;;;;;5074035;28;20276;-76
2023/02/23 21:24:54;;;;;;;;;;;10.50;1.00;;;;;;5062282;28;19908;-76
2023/02/23 21:27:31;;;;;;;;;;;10.60;1.00;;;;;;5066892;28;19904;-76
2023/02/23 21:30:06;;;;;;;;;;;10.60;1.00;;;;;;5074621;28;19915;-76
2023/02/23 21:33:06;;;;;;;;;;;10.60;1.00;;;;;;5074571;28;19916;-76
2023/02/23 21:36:09;;;;;;;;;;;10.50;1.00;;;;;;5075015;28;19908;-79
2023/02/23 21:38:48;;;;;;;;;;;10.60;1.00;;;;;;5072715;28;20352;-79
2023/02/23 21:41:36;;;;;;;;;;;10.60;1.00;;;;;;5074213;28;19905;-80
2023/02/23 21:47:13;;;;;;;;;;;10.60;1.00;;;;;;5074136;28;20008;-79
2023/02/23 21:52:44;;;;;;;;;;;10.60;1.00;;;;;;5061896;28;19965;-76
2023/02/23 21:55:10;;;;;;;;;;;10.60;1.00;;;;;;5073996;28;20279;-76
2023/02/23 21:57:36;;;;;;;;;;;10.60;1.00;;;;;;5065806;28;19909;-76
2023/02/23 22:00:02;;;;;;;;;;;10.60;1.00;;;;;;5072939;28;19909;-76
2023/02/23 22:02:39;;;;;;;;;;;10.60;1.00;;;;;;5074093;28;19909;-76
2023/02/23 22:05:43;;;;;;;;;;;10.60;1.00;;;;;;5065670;28;19970;-79
2023/02/23 22:11:16;;;;;;;;;;;10.50;1.00;;;;;;5063839;28;19971;-76
2023/02/23 22:13:48;;;;;;;;;;;10.50;1.00;;;;;;5074033;28;19904;-77
2023/02/23 22:16:36;;;;;;;;;;;10.40;1.00;;;;;;5074231;28;19951;-77
2023/02/23 22:19:07;;;;;;;;;;;10.40;1.00;;;;;;5070426;28;20007;-76
2023/02/23 22:21:37;;;;;;;;;;;10.40;1.00;;;;;;5056231;28;19932;-77
2023/02/23 22:24:18;;;;;;;;;;;10.30;1.00;;;;;;5071464;28;19908;-76
2023/02/23 22:30:08;;;;;;;;;;;10.30;1.00;;;;;;5064983;28;20445;-76
2023/02/23 22:33:06;;;;;;;;;;;10.30;1.00;;;;;;5062086;28;20260;-76